createdAt,value
2019-02-16T00:00:50.942Z,96.50
2019-02-16T00:03:20.086Z,96.90
2019-02-16T00:05:49.241Z,96.50
2019-02-16T00:08:18.431Z,96.60
2019-02-16T00:10:47.553Z,96.50
2019-02-16T00:13:16.788Z,96.60
2019-02-16T00:15:45.994Z,96.70
2019-02-16T00:18:15.150Z,96.70
2019-02-16T00:20:44.289Z,97.10
2019-02-16T00:23:13.481Z,96.80
2019-02-16T00:25:42.646Z,96.80
2019-02-16T00:28:11.818Z,96.80
2019-02-16T00:30:41.034Z,96.80
2019-02-16T00:33:10.190Z,96.80
2019-02-16T00:35:39.364Z,96.80
2019-02-16T00:38:08.578Z,96.90
2019-02-16T00:40:37.710Z,96.80
2019-02-16T00:43:06.844Z,96.90
2019-02-16T00:45:36.004Z,96.80
2019-02-16T00:48:05.222Z,96.80
2019-02-16T00:50:34.446Z,96.90
2019-02-16T00:53:03.605Z,96.90
2019-02-16T00:55:32.738Z,97.10
2019-02-16T00:58:01.965Z,97.00
2019-02-16T01:00:31.121Z,96.90
2019-02-16T01:03:00.337Z,96.90
2019-02-16T01:05:29.483Z,96.70
2019-02-16T01:07:58.681Z,96.70
2019-02-16T01:10:27.845Z,97.00
2019-02-16T01:12:57.042Z,96.50
2019-02-16T01:15:26.194Z,96.60
2019-02-16T01:17:55.337Z,96.60
2019-02-16T01:20:24.477Z,96.70
2019-02-16T01:22:53.631Z,96.50
2019-02-16T01:25:22.844Z,96.80
2019-02-16T01:27:52.030Z,96.50
2019-02-16T01:30:21.198Z,96.70
2019-02-16T01:32:50.362Z,96.70
2019-02-16T01:35:19.533Z,96.90
2019-02-16T01:37:48.702Z,97.00
2019-02-16T01:40:17.862Z,96.90
2019-02-16T01:42:47.079Z,97.00
2019-02-16T01:45:16.338Z,97.10
2019-02-16T01:47:45.509Z,97.10
2019-02-16T01:50:14.766Z,97.00
2019-02-16T01:52:43.907Z,96.90
2019-02-16T01:55:13.165Z,96.70
2019-02-16T01:57:42.314Z,96.60
2019-02-16T02:00:11.790Z,96.50
2019-02-16T02:02:40.937Z,96.30
2019-02-16T02:05:10.134Z,96.20
2019-02-16T02:07:39.546Z,96.30
2019-02-16T02:10:09.650Z,96.20
2019-02-16T02:12:38.837Z,96.00
2019-02-16T02:15:08.781Z,96.10
2019-02-16T02:17:37.941Z,96.10
2019-02-16T02:20:07.429Z,96.00
2019-02-16T02:22:36.597Z,96.00
2019-02-16T02:25:07.153Z,95.90
2019-02-16T02:27:36.342Z,95.90
2019-02-16T02:30:06.083Z,95.80
2019-02-16T02:32:35.298Z,95.90
2019-02-16T02:35:04.900Z,95.80
2019-02-16T02:37:34.067Z,95.90
2019-02-16T02:40:03.226Z,95.90
2019-02-16T02:42:32.381Z,95.70
2019-02-16T02:45:01.617Z,95.80
2019-02-16T02:47:31.139Z,96.00
2019-02-16T02:50:00.274Z,96.10
2019-02-16T02:52:29.425Z,96.10
2019-02-16T02:54:58.654Z,96.00
2019-02-16T02:57:27.838Z,96.10
2019-02-16T02:59:56.971Z,96.00
2019-02-16T03:02:26.208Z,95.90
2019-02-16T03:04:55.466Z,96.10
2019-02-16T03:07:24.669Z,96.00
2019-02-16T03:09:53.873Z,96.00
2019-02-16T03:12:23.050Z,96.00
2019-02-16T03:14:52.217Z,95.90
2019-02-16T03:17:21.454Z,95.90
2019-02-16T03:19:50.637Z,95.80
2019-02-16T03:22:19.811Z,95.90
2019-02-16T03:24:48.951Z,96.00
2019-02-16T03:27:54.192Z,96.20
2019-02-16T03:30:57.035Z,96.30
2019-02-16T03:33:47.507Z,96.50
2019-02-16T03:37:02.542Z,96.40
2019-02-16T03:39:35.430Z,96.50
2019-02-16T03:42:04.574Z,96.40
2019-02-16T03:44:33.698Z,96.40
2019-02-16T03:47:02.842Z,96.50
2019-02-16T03:49:31.986Z,96.70
2019-02-16T03:52:01.247Z,96.60
2019-02-16T03:54:30.386Z,96.50
2019-02-16T03:56:59.577Z,96.70
2019-02-16T03:59:28.870Z,96.50
2019-02-16T04:01:58.129Z,96.40
2019-02-16T04:04:27.355Z,96.50
2019-02-16T04:06:56.550Z,96.30
2019-02-16T04:09:25.701Z,96.40
2019-02-16T04:11:54.865Z,96.40
2019-02-16T04:14:24.031Z,96.30
2019-02-16T04:16:53.198Z,96.30
2019-02-16T04:19:22.396Z,96.40
2019-02-16T04:21:51.597Z,96.10
2019-02-16T04:24:20.736Z,95.90
2019-02-16T04:26:49.924Z,95.90
2019-02-16T04:29:19.062Z,95.70
2019-02-16T04:31:48.223Z,95.60
2019-02-16T04:34:17.494Z,95.60
2019-02-16T04:36:46.658Z,95.50
2019-02-16T04:39:15.953Z,95.50
2019-02-16T04:41:45.130Z,95.40
2019-02-16T04:44:14.274Z,95.70
2019-02-16T04:46:43.485Z,95.90
2019-02-16T04:49:12.690Z,95.90
2019-02-16T04:51:41.827Z,95.80
2019-02-16T04:54:10.945Z,95.80
2019-02-16T04:56:40.112Z,95.90
2019-02-16T04:59:09.314Z,95.90
2019-02-16T05:01:38.564Z,95.80
2019-02-16T05:04:07.702Z,95.80
2019-02-16T05:06:36.871Z,95.70
2019-02-16T05:09:07.607Z,95.90
2019-02-16T05:11:36.747Z,95.80
2019-02-16T05:14:05.886Z,95.90
2019-02-16T05:16:35.077Z,95.70
2019-02-16T05:19:04.218Z,95.60
2019-02-16T05:21:33.399Z,95.50
2019-02-16T05:24:02.645Z,95.50
2019-02-16T05:26:31.767Z,95.70
2019-02-16T05:29:00.947Z,95.20
2019-02-16T05:31:30.107Z,95.00
2019-02-16T05:33:59.226Z,95.00
2019-02-16T05:36:28.406Z,95.10
2019-02-16T05:38:57.629Z,95.00
2019-02-16T05:41:26.763Z,94.80
2019-02-16T05:43:56.054Z,94.90
2019-02-16T05:46:25.198Z,94.90
2019-02-16T05:48:54.370Z,94.80
2019-02-16T05:51:23.606Z,94.70
2019-02-16T05:53:52.762Z,94.80
2019-02-16T05:56:21.923Z,94.80
2019-02-16T05:58:51.065Z,94.70
2019-02-16T06:01:20.229Z,94.80
2019-02-16T06:03:49.354Z,94.60
2019-02-16T06:06:18.481Z,94.50
2019-02-16T06:08:47.741Z,94.30
2019-02-16T06:11:16.883Z,94.20
2019-02-16T06:13:48.910Z,94.10
2019-02-16T06:16:18.067Z,93.80
2019-02-16T06:18:48.106Z,93.60
2019-02-16T06:21:17.280Z,93.30
2019-02-16T06:23:48.110Z,93.30
2019-02-16T06:26:17.388Z,93.30
2019-02-16T06:28:47.652Z,93.40
2019-02-16T06:31:16.838Z,93.10
2019-02-16T06:33:46.110Z,93.20
2019-02-16T06:36:37.438Z,93.10
2019-02-16T06:39:06.783Z,93.10
2019-02-16T06:41:35.934Z,93.10
2019-02-16T06:44:05.183Z,93.10
2019-02-16T06:46:34.320Z,93.30
2019-02-16T06:49:03.467Z,93.30
2019-02-16T06:51:32.707Z,93.30
2019-02-16T06:54:01.855Z,93.70
2019-02-16T06:56:38.719Z,93.40
2019-02-16T06:59:07.889Z,93.80
2019-02-16T07:01:37.010Z,93.30
2019-02-16T07:04:06.170Z,93.30
2019-02-16T07:06:35.451Z,93.30
2019-02-16T07:09:05.628Z,93.20
2019-02-16T07:11:34.825Z,93.20
2019-02-16T07:14:03.996Z,93.30
2019-02-16T07:16:54.397Z,93.30
2019-02-16T07:19:29.802Z,93.40
2019-02-16T07:21:58.958Z,93.30
2019-02-16T07:24:28.123Z,93.30
2019-02-16T07:26:57.374Z,93.50
2019-02-16T07:29:26.580Z,93.50
2019-02-16T07:31:55.715Z,93.40
2019-02-16T07:34:24.887Z,93.00
2019-02-16T07:36:54.066Z,92.90
2019-02-16T07:39:23.242Z,92.70
2019-02-16T07:41:52.485Z,92.40
2019-02-16T07:44:39.444Z,92.10
2019-02-16T07:47:19.553Z,91.80
2019-02-16T07:49:57.354Z,91.70
2019-02-16T07:52:34.738Z,91.60
2019-02-16T07:55:20.707Z,91.40
2019-02-16T07:58:15.154Z,91.20
2019-02-16T08:00:56.620Z,90.90
2019-02-16T08:03:31.154Z,90.70
2019-02-16T08:06:27.906Z,90.60
2019-02-16T08:09:07.365Z,90.30
2019-02-16T08:11:58.299Z,90.20
2019-02-16T08:14:37.816Z,90.20
2019-02-16T08:17:19.806Z,90.10
2019-02-16T08:20:23.085Z,90.10
2019-02-16T08:23:10.115Z,89.70
2019-02-16T08:26:07.325Z,89.10
2019-02-16T08:28:58.499Z,88.60
2019-02-16T08:31:37.358Z,88.10
2019-02-16T08:34:37.457Z,88.30
2019-02-16T08:37:28.653Z,88.20
2019-02-16T08:40:13.211Z,87.80
2019-02-16T08:43:04.457Z,87.40
2019-02-16T08:45:46.226Z,87.10
2019-02-16T08:48:34.451Z,87.20
2019-02-16T08:51:14.120Z,87.50
2019-02-16T08:53:53.609Z,86.80
2019-02-16T08:56:57.186Z,86.50
2019-02-16T08:59:53.542Z,86.10
2019-02-16T09:02:33.969Z,85.70
2019-02-16T09:05:13.558Z,85.40
2019-02-16T09:08:04.016Z,85.40
2019-02-16T09:10:57.388Z,85.20
2019-02-16T09:13:44.445Z,84.40
2019-02-16T09:16:26.607Z,83.90
2019-02-16T09:19:14.870Z,83.50
2019-02-16T09:22:15.456Z,83.20
2019-02-16T09:24:53.754Z,83.30
2019-02-16T09:27:40.681Z,81.40
2019-02-16T09:30:20.486Z,81.00
2019-02-16T09:33:11.722Z,81.80
2019-02-16T09:36:00.046Z,80.80
2019-02-16T09:38:37.594Z,80.30
2019-02-16T09:41:24.484Z,78.20
2019-02-16T09:44:24.719Z,76.50
2019-02-16T09:47:12.914Z,76.90
2019-02-16T09:49:51.351Z,75.50
2019-02-16T09:52:26.990Z,74.10
2019-02-16T09:55:06.681Z,73.90
2019-02-16T09:58:07.279Z,74.20
2019-02-16T10:00:51.363Z,74.80
2019-02-16T10:03:35.577Z,74.30
2019-02-16T10:06:29.803Z,73.10
2019-02-16T10:09:13.414Z,72.50
2019-02-16T10:12:11.733Z,72.80
2019-02-16T10:14:58.738Z,73.00
2019-02-16T10:17:39.305Z,73.20
2019-02-16T10:20:34.286Z,72.10
2019-02-16T10:23:34.758Z,71.60
2019-02-16T10:26:10.485Z,70.20
2019-02-16T10:28:47.698Z,69.50
2019-02-16T10:31:38.994Z,69.80
2019-02-16T10:34:26.208Z,69.60
2019-02-16T10:37:03.598Z,67.90
2019-02-16T10:39:54.659Z,66.60
2019-02-16T10:42:36.762Z,69.10
2019-02-16T10:45:19.942Z,66.60
2019-02-16T10:48:07.118Z,66.10
2019-02-16T10:50:43.583Z,66.00
2019-02-16T10:53:31.989Z,64.60
2019-02-16T10:56:16.863Z,63.20
2019-02-16T10:59:14.102Z,62.30
2019-02-16T11:02:01.098Z,60.80
2019-02-16T11:04:52.234Z,60.20
2019-02-16T11:07:34.874Z,63.30
2019-02-16T11:10:14.043Z,61.00
2019-02-16T11:12:55.903Z,61.60
2019-02-16T11:15:44.416Z,62.70
2019-02-16T11:18:36.498Z,60.70
2019-02-16T11:21:33.777Z,61.00
2019-02-16T11:24:20.593Z,59.00
2019-02-16T11:27:10.606Z,57.80
2019-02-16T11:29:57.634Z,59.40
2019-02-16T11:32:44.818Z,57.70
2019-02-16T11:35:26.248Z,58.50
2019-02-16T11:38:13.636Z,56.20
2019-02-16T11:41:04.866Z,55.30
2019-02-16T11:44:03.222Z,55.60
2019-02-16T11:47:09.626Z,55.90
2019-02-16T11:49:57.802Z,54.40
2019-02-16T11:52:44.611Z,51.30
2019-02-16T11:55:24.720Z,53.30
2019-02-16T11:58:14.928Z,53.80
2019-02-16T12:01:15.506Z,53.00
2019-02-16T12:04:12.634Z,52.20
2019-02-16T12:06:52.057Z,51.50
2019-02-16T12:09:31.889Z,49.70
2019-02-16T12:12:11.758Z,50.80
2019-02-16T12:14:57.226Z,51.50
2019-02-16T12:17:44.278Z,52.00
2019-02-16T12:20:33.650Z,52.80
2019-02-16T12:23:19.220Z,52.00
2019-02-16T12:25:57.146Z,52.50
2019-02-16T12:28:34.287Z,55.20
2019-02-16T12:31:31.572Z,53.00
2019-02-16T12:34:25.650Z,50.10
2019-02-16T12:37:19.339Z,49.30
2019-02-16T12:40:03.706Z,49.30
2019-02-16T12:42:50.553Z,49.70
2019-02-16T12:45:30.239Z,49.90
2019-02-16T12:48:18.086Z,51.00
2019-02-16T12:51:18.461Z,51.00
2019-02-16T12:54:05.332Z,51.20
2019-02-16T12:56:59.726Z,51.70
2019-02-16T12:59:54.022Z,52.20
2019-02-16T13:02:54.466Z,52.00
2019-02-16T13:05:39.009Z,52.20
2019-02-16T13:08:12.224Z,52.90
2019-02-16T13:10:57.379Z,51.50
2019-02-16T13:13:44.289Z,51.50
2019-02-16T13:16:41.768Z,51.60
2019-02-16T13:19:35.945Z,51.40
2019-02-16T13:22:27.400Z,52.50
2019-02-16T13:25:02.398Z,52.10
2019-02-16T13:27:56.866Z,50.70
2019-02-16T13:30:38.301Z,49.70
2019-02-16T13:33:27.497Z,51.20
2019-02-16T13:36:18.471Z,51.20
2019-02-16T13:39:06.734Z,50.40
2019-02-16T13:42:04.382Z,50.40
2019-02-16T13:44:55.435Z,51.40
2019-02-16T13:47:46.430Z,51.30
2019-02-16T13:50:23.074Z,53.20
2019-02-16T13:53:11.291Z,53.10
2019-02-16T13:56:05.776Z,51.30
2019-02-16T13:58:47.730Z,49.20
2019-02-16T14:01:30.680Z,50.50
2019-02-16T14:04:16.642Z,50.40
2019-02-16T14:07:07.633Z,50.00
2019-02-16T14:09:58.870Z,51.80
2019-02-16T14:12:42.105Z,51.10
2019-02-16T14:15:21.170Z,51.00
2019-02-16T14:17:51.663Z,50.00
2019-02-16T14:20:21.019Z,51.50
2019-02-16T14:22:50.330Z,51.40
2019-02-16T14:25:24.982Z,52.00
2019-02-16T14:27:54.186Z,52.40
2019-02-16T14:30:23.328Z,51.70
2019-02-16T14:32:52.514Z,51.90
2019-02-16T14:35:21.690Z,51.80
2019-02-16T14:38:08.698Z,52.10
2019-02-16T14:40:37.969Z,52.60
2019-02-16T14:43:07.126Z,52.90
2019-02-16T14:45:39.092Z,52.70
2019-02-16T14:48:08.266Z,52.90
2019-02-16T14:50:37.410Z,53.10
2019-02-16T14:53:06.586Z,52.70
2019-02-16T14:55:35.818Z,52.40
2019-02-16T14:58:05.000Z,51.90
2019-02-16T15:00:34.235Z,51.30
2019-02-16T15:03:03.465Z,50.00
2019-02-16T15:05:32.613Z,49.80
2019-02-16T15:08:01.823Z,49.60
2019-02-16T15:10:31.098Z,50.50
2019-02-16T15:13:00.282Z,50.30
2019-02-16T15:15:29.555Z,51.60
2019-02-16T15:17:58.779Z,51.60
2019-02-16T15:20:28.102Z,52.10
2019-02-16T15:22:57.273Z,52.80
2019-02-16T15:25:26.502Z,51.00
2019-02-16T15:27:55.681Z,51.90
2019-02-16T15:30:24.927Z,50.40
2019-02-16T15:32:54.186Z,50.70
2019-02-16T15:35:23.371Z,50.60
2019-02-16T15:37:52.536Z,49.40
2019-02-16T15:40:21.774Z,49.70
2019-02-16T15:42:51.049Z,49.50
2019-02-16T15:45:20.219Z,49.40
2019-02-16T15:47:49.418Z,49.30
2019-02-16T15:50:18.641Z,49.20
2019-02-16T15:52:47.862Z,48.40
2019-02-16T15:55:17.027Z,49.90
2019-02-16T15:57:46.163Z,50.20
2019-02-16T16:00:23.664Z,51.60
2019-02-16T16:02:52.874Z,52.00
2019-02-16T16:05:22.021Z,52.90
2019-02-16T16:07:58.877Z,53.90
2019-02-16T16:10:34.771Z,54.70
2019-02-16T16:13:22.037Z,55.10
2019-02-16T16:16:01.517Z,55.80
2019-02-16T16:18:55.530Z,56.10
2019-02-16T16:21:49.592Z,56.50
2019-02-16T16:24:37.954Z,57.30
2019-02-16T16:27:19.638Z,58.20
2019-02-16T16:30:07.008Z,58.60
2019-02-16T16:32:58.286Z,59.00
2019-02-16T16:35:46.102Z,59.50
2019-02-16T16:38:29.771Z,60.20
2019-02-16T16:41:21.054Z,60.40
2019-02-16T16:44:08.171Z,60.50
2019-02-16T16:46:59.471Z,60.70
2019-02-16T16:50:00.098Z,62.20
2019-02-16T16:53:00.295Z,60.80
2019-02-16T16:55:47.476Z,60.70
2019-02-16T16:58:34.407Z,61.10
2019-02-16T17:01:22.619Z,60.70
2019-02-16T17:04:29.213Z,60.90
2019-02-16T17:07:20.434Z,61.90
2019-02-16T17:10:14.667Z,61.10
2019-02-16T17:12:53.069Z,61.70
2019-02-16T17:15:41.322Z,62.40
2019-02-16T17:18:28.410Z,62.30
2019-02-16T17:21:25.741Z,62.30
2019-02-16T17:24:22.943Z,62.80
2019-02-16T17:27:14.182Z,62.20
2019-02-16T17:30:01.138Z,62.60
2019-02-16T17:32:48.251Z,61.80
2019-02-16T17:35:36.553Z,61.70
2019-02-16T17:38:29.841Z,61.70
2019-02-16T17:41:14.302Z,61.60
2019-02-16T17:43:55.734Z,61.80
2019-02-16T17:46:43.534Z,61.80
2019-02-16T17:49:28.632Z,61.80
2019-02-16T17:52:19.891Z,62.00
2019-02-16T17:55:08.122Z,62.50
2019-02-16T17:58:02.483Z,62.50
2019-02-16T18:01:02.581Z,62.80
2019-02-16T18:04:08.942Z,62.60
2019-02-16T18:06:55.902Z,62.30
2019-02-16T18:09:59.229Z,62.50
2019-02-16T18:12:53.248Z,62.60
2019-02-16T18:15:41.526Z,62.70
2019-02-16T18:18:22.162Z,63.00
2019-02-16T18:21:10.391Z,63.00
2019-02-16T18:24:10.791Z,63.50
2019-02-16T18:26:56.942Z,63.80
2019-02-16T18:29:54.002Z,64.00
2019-02-16T18:32:41.036Z,64.00
2019-02-16T18:35:47.990Z,64.10
2019-02-16T18:38:48.389Z,64.50
2019-02-16T18:41:35.334Z,64.90
2019-02-16T18:44:23.939Z,65.00
2019-02-16T18:47:12.118Z,65.00
2019-02-16T18:49:59.132Z,65.50
2019-02-16T18:53:02.718Z,65.50
2019-02-16T18:55:48.092Z,65.40
2019-02-16T18:58:42.597Z,66.10
2019-02-16T19:01:30.823Z,66.00
2019-02-16T19:04:18.026Z,66.10
2019-02-16T19:07:18.481Z,65.90
2019-02-16T19:09:58.128Z,66.30
2019-02-16T19:13:01.785Z,66.50
2019-02-16T19:16:02.178Z,66.60
2019-02-16T19:18:49.702Z,67.10
2019-02-16T19:21:28.310Z,67.30
2019-02-16T19:24:15.443Z,67.60
2019-02-16T19:27:16.230Z,67.90
2019-02-16T19:29:55.086Z,68.80
2019-02-16T19:32:40.284Z,69.40
2019-02-16T19:35:19.419Z,69.80
2019-02-16T19:38:04.066Z,70.00
2019-02-16T19:40:58.319Z,70.10
2019-02-16T19:43:58.833Z,70.10
2019-02-16T19:46:47.510Z,70.40
2019-02-16T19:49:32.826Z,70.80
2019-02-16T19:52:27.474Z,70.80
2019-02-16T19:55:21.445Z,70.80
2019-02-16T19:58:10.322Z,71.30
2019-02-16T20:01:01.311Z,71.50
2019-02-16T20:04:01.587Z,71.10
2019-02-16T20:06:43.514Z,71.80
2019-02-16T20:09:27.771Z,72.40
2019-02-16T20:12:16.054Z,72.30
2019-02-16T20:14:54.023Z,72.80
2019-02-16T20:17:31.121Z,73.20
2019-02-16T20:20:37.498Z,73.60
2019-02-16T20:23:43.876Z,73.80
2019-02-16T20:26:25.781Z,74.20
2019-02-16T20:29:04.543Z,74.50
2019-02-16T20:31:51.350Z,75.00
2019-02-16T20:34:33.333Z,75.20
2019-02-16T20:37:27.540Z,75.50
2019-02-16T20:40:21.822Z,75.60
2019-02-16T20:43:13.030Z,75.80
2019-02-16T20:46:10.778Z,76.10
2019-02-16T20:48:59.014Z,76.30
2019-02-16T20:51:53.195Z,76.60
2019-02-16T20:54:40.112Z,77.00
2019-02-16T20:57:18.289Z,77.30
2019-02-16T21:00:04.426Z,77.60
2019-02-16T21:02:51.372Z,78.00
2019-02-16T21:05:31.905Z,78.40
2019-02-16T21:08:18.775Z,79.00
2019-02-16T21:11:10.259Z,79.20
2019-02-16T21:13:57.984Z,79.10
2019-02-16T21:16:55.233Z,80.50
2019-02-16T21:19:42.374Z,80.90
2019-02-16T21:22:42.922Z,81.60
2019-02-16T21:25:29.545Z,81.90
2019-02-16T21:28:24.523Z,81.90
2019-02-16T21:31:18.312Z,82.80
2019-02-16T21:34:05.086Z,82.90
2019-02-16T21:36:48.661Z,83.70
2019-02-16T21:39:35.628Z,83.70
2019-02-16T21:42:30.099Z,84.00
2019-02-16T21:45:10.169Z,84.10
2019-02-16T21:47:57.270Z,84.00
2019-02-16T21:50:49.875Z,84.10
2019-02-16T21:53:32.253Z,83.70
2019-02-16T21:56:23.198Z,83.50
2019-02-16T21:59:18.882Z,83.70
2019-02-16T22:01:55.918Z,83.30
2019-02-16T22:04:34.794Z,83.60
2019-02-16T22:07:21.781Z,83.60
2019-02-16T22:10:03.509Z,83.70
2019-02-16T22:12:52.534Z,83.70
2019-02-16T22:15:22.114Z,83.50
2019-02-16T22:17:51.252Z,83.80
2019-02-16T22:20:20.410Z,84.10
2019-02-16T22:22:49.564Z,84.40
2019-02-16T22:25:21.208Z,84.40
2019-02-16T22:27:49.662Z,84.70
2019-02-16T22:30:18.906Z,84.80
2019-02-16T22:32:48.030Z,84.60
2019-02-16T22:35:17.239Z,85.00
2019-02-16T22:37:46.533Z,85.20
2019-02-16T22:40:15.721Z,85.00
2019-02-16T22:42:44.889Z,85.10
2019-02-16T22:45:14.250Z,84.80
2019-02-16T22:47:43.394Z,85.10
2019-02-16T22:50:12.814Z,85.20
2019-02-16T22:52:42.103Z,85.30
2019-02-16T22:55:11.268Z,85.10
2019-02-16T22:57:40.439Z,84.80
2019-02-16T23:00:27.546Z,85.30
2019-02-16T23:02:56.800Z,85.20
2019-02-16T23:05:25.997Z,84.90
2019-02-16T23:07:55.227Z,85.00
2019-02-16T23:10:24.383Z,85.10
2019-02-16T23:12:53.641Z,84.70
2019-02-16T23:15:22.806Z,85.00
2019-02-16T23:17:51.974Z,84.50
2019-02-16T23:20:21.194Z,84.50
2019-02-16T23:22:50.478Z,84.50
2019-02-16T23:25:19.671Z,84.50
2019-02-16T23:27:48.858Z,84.20
2019-02-16T23:30:18.003Z,84.20
2019-02-16T23:32:47.234Z,84.00
2019-02-16T23:35:16.418Z,84.00
2019-02-16T23:37:45.546Z,83.90
2019-02-16T23:40:14.669Z,83.60
2019-02-16T23:42:43.926Z,83.50
2019-02-16T23:45:13.146Z,83.50
2019-02-16T23:47:42.318Z,83.30
2019-02-16T23:50:11.470Z,83.20
2019-02-16T23:52:40.682Z,83.30
2019-02-16T23:55:10.186Z,83.30
2019-02-16T23:57:39.318Z,83.20
